sensor_id;sensor_type;location;lat;lon;timestamp;P1;durP1;ratioP1;P2;durP2;ratioP2
15126;SDS011;7664;52.008;4.748;2022-09-24T00:01:49;9.35;;;5.80;;
15126;SDS011;7664;52.008;4.748;2022-09-24T00:04:17;7.35;;;5.63;;
15126;SDS011;7664;52.008;4.748;2022-09-24T00:06:46;7.35;;;5.50;;
15126;SDS011;7664;52.008;4.748;2022-09-24T00:09:15;7.55;;;5.38;;
15126;SDS011;7664;52.008;4.748;2022-09-24T00:11:49;7.80;;;5.68;;
15126;SDS011;7664;52.008;4.748;2022-09-24T00:14:18;8.32;;;6.13;;
15126;SDS011;7664;52.008;4.748;2022-09-24T00:16:46;7.05;;;5.70;;
15126;SDS011;7664;52.008;4.748;2022-09-24T00:19:15;9.13;;;6.35;;
15126;SDS011;7664;52.008;4.748;2022-09-24T00:21:43;9.57;;;6.50;;
15126;SDS011;7664;52.008;4.748;2022-09-24T00:24:11;9.10;;;5.85;;
15126;SDS011;7664;52.008;4.748;2022-09-24T00:27:03;8.80;;;6.55;;
15126;SDS011;7664;52.008;4.748;2022-09-24T00:29:31;9.50;;;6.32;;
15126;SDS011;7664;52.008;4.748;2022-09-24T00:32:01;8.32;;;6.57;;
15126;SDS011;7664;52.008;4.748;2022-09-24T00:34:29;11.20;;;7.20;;
15126;SDS011;7664;52.008;4.748;2022-09-24T00:36:57;9.50;;;7.32;;
15126;SDS011;7664;52.008;4.748;2022-09-24T00:39:25;12.52;;;8.23;;
15126;SDS011;7664;52.008;4.748;2022-09-24T00:41:54;11.73;;;8.32;;
15126;SDS011;7664;52.008;4.748;2022-09-24T00:47:28;13.02;;;8.70;;
15126;SDS011;7664;52.008;4.748;2022-09-24T00:50:13;10.68;;;7.75;;
15126;SDS011;7664;52.008;4.748;2022-09-24T00:52:44;12.90;;;8.63;;
15126;SDS011;7664;52.008;4.748;2022-09-24T00:55:18;11.73;;;8.30;;
15126;SDS011;7664;52.008;4.748;2022-09-24T00:57:49;13.07;;;8.73;;
15126;SDS011;7664;52.008;4.748;2022-09-24T01:00:21;11.95;;;8.25;;
15126;SDS011;7664;52.008;4.748;2022-09-24T01:02:51;10.70;;;7.93;;
15126;SDS011;7664;52.008;4.748;2022-09-24T01:05:24;12.63;;;8.50;;
15126;SDS011;7664;52.008;4.748;2022-09-24T01:07:52;12.38;;;8.57;;
15126;SDS011;7664;52.008;4.748;2022-09-24T01:10:21;11.45;;;8.85;;
15126;SDS011;7664;52.008;4.748;2022-09-24T01:16:32;13.00;;;8.88;;
15126;SDS011;7664;52.008;4.748;2022-09-24T01:19:09;13.15;;;9.43;;
15126;SDS011;7664;52.008;4.748;2022-09-24T01:21:47;13.38;;;8.32;;
15126;SDS011;7664;52.008;4.748;2022-09-24T01:24:29;13.07;;;9.73;;
15126;SDS011;7664;52.008;4.748;2022-09-24T01:27:12;12.10;;;9.55;;
15126;SDS011;7664;52.008;4.748;2022-09-24T01:29:48;13.95;;;9.70;;
15126;SDS011;7664;52.008;4.748;2022-09-24T01:32:23;15.02;;;10.38;;
15126;SDS011;7664;52.008;4.748;2022-09-24T01:34:58;11.77;;;9.43;;
15126;SDS011;7664;52.008;4.748;2022-09-24T01:37:31;13.65;;;9.25;;
15126;SDS011;7664;52.008;4.748;2022-09-24T01:40:01;11.75;;;8.65;;
15126;SDS011;7664;52.008;4.748;2022-09-24T01:42:31;13.07;;;8.98;;
15126;SDS011;7664;52.008;4.748;2022-09-24T01:45:02;13.65;;;9.25;;
15126;SDS011;7664;52.008;4.748;2022-09-24T01:47:31;12.00;;;8.65;;
15126;SDS011;7664;52.008;4.748;2022-09-24T01:50:05;11.73;;;7.78;;
15126;SDS011;7664;52.008;4.748;2022-09-24T01:52:37;13.10;;;8.85;;
15126;SDS011;7664;52.008;4.748;2022-09-24T01:55:10;14.38;;;9.70;;
15126;SDS011;7664;52.008;4.748;2022-09-24T01:57:42;13.73;;;8.35;;
15126;SDS011;7664;52.008;4.748;2022-09-24T02:00:15;12.15;;;7.70;;
15126;SDS011;7664;52.008;4.748;2022-09-24T02:02:46;14.02;;;8.90;;
15126;SDS011;7664;52.008;4.748;2022-09-24T02:05:19;10.90;;;7.57;;
15126;SDS011;7664;52.008;4.748;2022-09-24T02:07:53;11.48;;;8.65;;
15126;SDS011;7664;52.008;4.748;2022-09-24T02:10:24;11.32;;;8.38;;
15126;SDS011;7664;52.008;4.748;2022-09-24T02:12:57;13.75;;;9.40;;
15126;SDS011;7664;52.008;4.748;2022-09-24T02:15:30;12.52;;;8.77;;
15126;SDS011;7664;52.008;4.748;2022-09-24T02:18:02;13.35;;;9.60;;
15126;SDS011;7664;52.008;4.748;2022-09-24T02:20:35;16.52;;;10.07;;
15126;SDS011;7664;52.008;4.748;2022-09-24T02:23:06;13.05;;;8.60;;
15126;SDS011;7664;52.008;4.748;2022-09-24T02:25:37;14.70;;;10.23;;
15126;SDS011;7664;52.008;4.748;2022-09-24T02:28:09;13.13;;;9.23;;
15126;SDS011;7664;52.008;4.748;2022-09-24T02:30:39;13.15;;;9.25;;
15126;SDS011;7664;52.008;4.748;2022-09-24T02:33:11;12.13;;;9.02;;
15126;SDS011;7664;52.008;4.748;2022-09-24T02:35:55;12.85;;;8.90;;
15126;SDS011;7664;52.008;4.748;2022-09-24T02:38:23;14.20;;;9.25;;
15126;SDS011;7664;52.008;4.748;2022-09-24T02:40:51;13.73;;;9.52;;
15126;SDS011;7664;52.008;4.748;2022-09-24T02:43:20;14.57;;;9.50;;
15126;SDS011;7664;52.008;4.748;2022-09-24T02:45:50;11.43;;;8.48;;
15126;SDS011;7664;52.008;4.748;2022-09-24T02:48:18;15.63;;;10.10;;
15126;SDS011;7664;52.008;4.748;2022-09-24T02:50:46;13.80;;;9.60;;
15126;SDS011;7664;52.008;4.748;2022-09-24T02:53:14;13.50;;;9.57;;
15126;SDS011;7664;52.008;4.748;2022-09-24T02:55:42;12.98;;;9.25;;
15126;SDS011;7664;52.008;4.748;2022-09-24T02:58:10;13.38;;;9.38;;
15126;SDS011;7664;52.008;4.748;2022-09-24T03:00:38;14.80;;;9.63;;
15126;SDS011;7664;52.008;4.748;2022-09-24T03:03:07;13.95;;;9.25;;
15126;SDS011;7664;52.008;4.748;2022-09-24T03:05:35;15.90;;;9.30;;
15126;SDS011;7664;52.008;4.748;2022-09-24T03:08:03;16.20;;;9.90;;
15126;SDS011;7664;52.008;4.748;2022-09-24T03:10:32;14.65;;;10.05;;
15126;SDS011;7664;52.008;4.748;2022-09-24T03:13:01;14.30;;;9.43;;
15126;SDS011;7664;52.008;4.748;2022-09-24T03:15:28;14.15;;;9.95;;
15126;SDS011;7664;52.008;4.748;2022-09-24T03:17:56;15.73;;;11.88;;
15126;SDS011;7664;52.008;4.748;2022-09-24T03:20:26;14.70;;;10.55;;
15126;SDS011;7664;52.008;4.748;2022-09-24T03:22:54;14.05;;;10.32;;
15126;SDS011;7664;52.008;4.748;2022-09-24T03:25:21;16.17;;;11.55;;
15126;SDS011;7664;52.008;4.748;2022-09-24T03:27:50;17.33;;;11.70;;
15126;SDS011;7664;52.008;4.748;2022-09-24T03:30:18;16.38;;;11.77;;
15126;SDS011;7664;52.008;4.748;2022-09-24T03:33:04;16.15;;;11.63;;
15126;SDS011;7664;52.008;4.748;2022-09-24T03:35:33;13.98;;;11.13;;
15126;SDS011;7664;52.008;4.748;2022-09-24T03:38:01;15.57;;;11.02;;
15126;SDS011;7664;52.008;4.748;2022-09-24T03:40:29;15.75;;;11.60;;
15126;SDS011;7664;52.008;4.748;2022-09-24T03:42:57;15.00;;;10.48;;
15126;SDS011;7664;52.008;4.748;2022-09-24T03:45:25;13.68;;;10.77;;
15126;SDS011;7664;52.008;4.748;2022-09-24T03:47:53;15.57;;;10.80;;
15126;SDS011;7664;52.008;4.748;2022-09-24T03:50:21;14.43;;;10.82;;
15126;SDS011;7664;52.008;4.748;2022-09-24T03:52:50;15.30;;;10.55;;
15126;SDS011;7664;52.008;4.748;2022-09-24T03:55:18;13.90;;;10.90;;
15126;SDS011;7664;52.008;4.748;2022-09-24T03:57:46;14.15;;;11.05;;
15126;SDS011;7664;52.008;4.748;2022-09-24T04:00:14;15.77;;;11.50;;
15126;SDS011;7664;52.008;4.748;2022-09-24T04:02:42;18.13;;;11.20;;
15126;SDS011;7664;52.008;4.748;2022-09-24T04:05:10;15.65;;;10.88;;
15126;SDS011;7664;52.008;4.748;2022-09-24T04:07:38;13.50;;;10.43;;
15126;SDS011;7664;52.008;4.748;2022-09-24T04:10:09;16.65;;;11.43;;
15126;SDS011;7664;52.008;4.748;2022-09-24T04:12:37;13.88;;;10.70;;
15126;SDS011;7664;52.008;4.748;2022-09-24T04:15:05;14.80;;;11.13;;
15126;SDS011;7664;52.008;4.748;2022-09-24T04:17:33;14.02;;;10.55;;
15126;SDS011;7664;52.008;4.748;2022-09-24T04:20:01;18.33;;;12.38;;
15126;SDS011;7664;52.008;4.748;2022-09-24T04:22:30;16.65;;;11.70;;
15126;SDS011;7664;52.008;4.748;2022-09-24T04:24:58;16.23;;;11.73;;
15126;SDS011;7664;52.008;4.748;2022-09-24T04:27:27;16.55;;;11.98;;
15126;SDS011;7664;52.008;4.748;2022-09-24T04:29:55;15.27;;;11.93;;
15126;SDS011;7664;52.008;4.748;2022-09-24T04:32:23;14.90;;;11.38;;
15126;SDS011;7664;52.008;4.748;2022-09-24T04:34:51;17.10;;;12.32;;
15126;SDS011;7664;52.008;4.748;2022-09-24T04:37:18;19.95;;;13.10;;
15126;SDS011;7664;52.008;4.748;2022-09-24T04:39:46;17.08;;;12.35;;
15126;SDS011;7664;52.008;4.748;2022-09-24T04:42:15;15.73;;;11.70;;
15126;SDS011;7664;52.008;4.748;2022-09-24T04:44:45;17.73;;;12.75;;
15126;SDS011;7664;52.008;4.748;2022-09-24T04:47:16;18.73;;;13.45;;
15126;SDS011;7664;52.008;4.748;2022-09-24T04:49:44;18.00;;;12.95;;
15126;SDS011;7664;52.008;4.748;2022-09-24T04:52:12;17.45;;;13.10;;
15126;SDS011;7664;52.008;4.748;2022-09-24T04:54:41;15.93;;;12.25;;
15126;SDS011;7664;52.008;4.748;2022-09-24T04:57:12;16.00;;;12.45;;
15126;SDS011;7664;52.008;4.748;2022-09-24T04:59:40;15.43;;;12.27;;
15126;SDS011;7664;52.008;4.748;2022-09-24T05:02:09;17.17;;;12.52;;
15126;SDS011;7664;52.008;4.748;2022-09-24T05:04:37;19.40;;;13.90;;
15126;SDS011;7664;52.008;4.748;2022-09-24T05:07:05;19.83;;;14.13;;
15126;SDS011;7664;52.008;4.748;2022-09-24T05:09:33;20.17;;;14.73;;
15126;SDS011;7664;52.008;4.748;2022-09-24T05:12:01;19.65;;;13.38;;
15126;SDS011;7664;52.008;4.748;2022-09-24T05:14:29;18.92;;;14.32;;
15126;SDS011;7664;52.008;4.748;2022-09-24T05:16:57;18.58;;;14.23;;
15126;SDS011;7664;52.008;4.748;2022-09-24T05:19:27;19.75;;;13.63;;
15126;SDS011;7664;52.008;4.748;2022-09-24T05:21:55;18.38;;;13.95;;
15126;SDS011;7664;52.008;4.748;2022-09-24T05:24:23;19.95;;;14.05;;
15126;SDS011;7664;52.008;4.748;2022-09-24T05:26:51;19.70;;;14.73;;
15126;SDS011;7664;52.008;4.748;2022-09-24T05:29:36;17.40;;;13.05;;
15126;SDS011;7664;52.008;4.748;2022-09-24T05:32:05;19.08;;;14.15;;
15126;SDS011;7664;52.008;4.748;2022-09-24T05:34:36;19.77;;;13.77;;
15126;SDS011;7664;52.008;4.748;2022-09-24T05:37:04;23.15;;;15.88;;
15126;SDS011;7664;52.008;4.748;2022-09-24T05:39:32;20.15;;;14.73;;
15126;SDS011;7664;52.008;4.748;2022-09-24T05:42:00;19.35;;;14.70;;
15126;SDS011;7664;52.008;4.748;2022-09-24T05:44:29;17.73;;;13.20;;
15126;SDS011;7664;52.008;4.748;2022-09-24T05:46:57;17.75;;;12.93;;
15126;SDS011;7664;52.008;4.748;2022-09-24T05:49:26;16.80;;;12.70;;
15126;SDS011;7664;52.008;4.748;2022-09-24T05:51:55;18.70;;;14.13;;
15126;SDS011;7664;52.008;4.748;2022-09-24T05:54:24;19.95;;;14.07;;
15126;SDS011;7664;52.008;4.748;2022-09-24T05:56:52;18.80;;;13.52;;
15126;SDS011;7664;52.008;4.748;2022-09-24T05:59:20;20.83;;;15.13;;
15126;SDS011;7664;52.008;4.748;2022-09-24T06:01:49;21.75;;;15.43;;
15126;SDS011;7664;52.008;4.748;2022-09-24T06:04:17;18.90;;;13.35;;
15126;SDS011;7664;52.008;4.748;2022-09-24T06:06:45;20.08;;;14.82;;
15126;SDS011;7664;52.008;4.748;2022-09-24T06:09:15;20.10;;;14.38;;
15126;SDS011;7664;52.008;4.748;2022-09-24T06:11:43;20.30;;;14.48;;
15126;SDS011;7664;52.008;4.748;2022-09-24T06:14:11;18.02;;;13.80;;
15126;SDS011;7664;52.008;4.748;2022-09-24T06:16:40;17.90;;;12.65;;
15126;SDS011;7664;52.008;4.748;2022-09-24T06:19:08;20.75;;;13.85;;
15126;SDS011;7664;52.008;4.748;2022-09-24T06:21:36;19.38;;;14.30;;
15126;SDS011;7664;52.008;4.748;2022-09-24T06:24:04;17.42;;;12.93;;
15126;SDS011;7664;52.008;4.748;2022-09-24T06:26:33;16.65;;;11.60;;
15126;SDS011;7664;52.008;4.748;2022-09-24T06:29:02;15.57;;;10.93;;
15126;SDS011;7664;52.008;4.748;2022-09-24T06:31:30;13.68;;;9.18;;
15126;SDS011;7664;52.008;4.748;2022-09-24T06:34:00;14.63;;;9.02;;
15126;SDS011;7664;52.008;4.748;2022-09-24T06:36:29;13.10;;;8.73;;
15126;SDS011;7664;52.008;4.748;2022-09-24T06:38:56;11.93;;;8.05;;
15126;SDS011;7664;52.008;4.748;2022-09-24T06:41:25;11.45;;;7.88;;
15126;SDS011;7664;52.008;4.748;2022-09-24T06:43:54;10.60;;;7.20;;
15126;SDS011;7664;52.008;4.748;2022-09-24T06:46:22;10.02;;;6.88;;
15126;SDS011;7664;52.008;4.748;2022-09-24T06:48:51;12.18;;;7.07;;
15126;SDS011;7664;52.008;4.748;2022-09-24T06:51:20;9.35;;;5.90;;
15126;SDS011;7664;52.008;4.748;2022-09-24T06:53:49;7.60;;;5.38;;
15126;SDS011;7664;52.008;4.748;2022-09-24T06:56:17;8.90;;;5.53;;
15126;SDS011;7664;52.008;4.748;2022-09-24T06:58:45;8.50;;;5.03;;
15126;SDS011;7664;52.008;4.748;2022-09-24T07:01:15;6.95;;;3.50;;
15126;SDS011;7664;52.008;4.748;2022-09-24T07:03:43;5.22;;;2.53;;
15126;SDS011;7664;52.008;4.748;2022-09-24T07:06:11;4.43;;;2.22;;
15126;SDS011;7664;52.008;4.748;2022-09-24T07:08:38;3.55;;;2.33;;
15126;SDS011;7664;52.008;4.748;2022-09-24T07:11:06;5.95;;;2.80;;
15126;SDS011;7664;52.008;4.748;2022-09-24T07:13:34;6.63;;;4.07;;
15126;SDS011;7664;52.008;4.748;2022-09-24T07:16:02;7.38;;;3.75;;
15126;SDS011;7664;52.008;4.748;2022-09-24T07:18:32;6.32;;;4.22;;
15126;SDS011;7664;52.008;4.748;2022-09-24T07:21:00;7.18;;;4.22;;
15126;SDS011;7664;52.008;4.748;2022-09-24T07:23:28;8.55;;;5.28;;
15126;SDS011;7664;52.008;4.748;2022-09-24T07:25:56;8.73;;;5.47;;
15126;SDS011;7664;52.008;4.748;2022-09-24T07:28:24;9.20;;;5.55;;
15126;SDS011;7664;52.008;4.748;2022-09-24T07:30:55;9.85;;;6.50;;
15126;SDS011;7664;52.008;4.748;2022-09-24T07:33:25;10.38;;;6.75;;
15126;SDS011;7664;52.008;4.748;2022-09-24T07:35:54;10.40;;;7.07;;
15126;SDS011;7664;52.008;4.748;2022-09-24T07:38:22;9.70;;;7.15;;
15126;SDS011;7664;52.008;4.748;2022-09-24T07:40:51;9.85;;;7.18;;
15126;SDS011;7664;52.008;4.748;2022-09-24T07:43:19;11.60;;;7.47;;
15126;SDS011;7664;52.008;4.748;2022-09-24T07:45:47;11.00;;;7.07;;
15126;SDS011;7664;52.008;4.748;2022-09-24T07:48:16;11.68;;;8.05;;
15126;SDS011;7664;52.008;4.748;2022-09-24T07:50:44;12.57;;;8.80;;
15126;SDS011;7664;52.008;4.748;2022-09-24T07:53:13;10.98;;;8.35;;
15126;SDS011;7664;52.008;4.748;2022-09-24T07:55:42;14.00;;;8.25;;
15126;SDS011;7664;52.008;4.748;2022-09-24T07:58:11;14.68;;;9.35;;
15126;SDS011;7664;52.008;4.748;2022-09-24T08:00:40;13.50;;;9.27;;
15126;SDS011;7664;52.008;4.748;2022-09-24T08:03:08;12.65;;;8.10;;
15126;SDS011;7664;52.008;4.748;2022-09-24T08:05:40;12.05;;;7.28;;
15126;SDS011;7664;52.008;4.748;2022-09-24T08:08:10;11.98;;;5.88;;
15126;SDS011;7664;52.008;4.748;2022-09-24T08:10:40;11.55;;;5.18;;
15126;SDS011;7664;52.008;4.748;2022-09-24T08:13:08;8.20;;;3.47;;
15126;SDS011;7664;52.008;4.748;2022-09-24T08:15:36;10.30;;;2.85;;
15126;SDS011;7664;52.008;4.748;2022-09-24T08:18:04;6.80;;;1.77;;
15126;SDS011;7664;52.008;4.748;2022-09-24T08:20:32;6.50;;;1.92;;
15126;SDS011;7664;52.008;4.748;2022-09-24T08:23:02;6.38;;;1.38;;
15126;SDS011;7664;52.008;4.748;2022-09-24T08:25:32;4.43;;;1.48;;
15126;SDS011;7664;52.008;4.748;2022-09-24T08:28:02;6.25;;;1.15;;
15126;SDS011;7664;52.008;4.748;2022-09-24T08:30:31;5.47;;;1.10;;
15126;SDS011;7664;52.008;4.748;2022-09-24T08:33:00;7.97;;;1.38;;
15126;SDS011;7664;52.008;4.748;2022-09-24T08:35:29;3.80;;;1.33;;
15126;SDS011;7664;52.008;4.748;2022-09-24T08:37:57;7.55;;;1.45;;
15126;SDS011;7664;52.008;4.748;2022-09-24T08:40:27;8.43;;;1.20;;
15126;SDS011;7664;52.008;4.748;2022-09-24T08:42:59;6.65;;;1.40;;
15126;SDS011;7664;52.008;4.748;2022-09-24T08:45:38;7.35;;;1.10;;
15126;SDS011;7664;52.008;4.748;2022-09-24T08:48:26;4.78;;;1.40;;
15126;SDS011;7664;52.008;4.748;2022-09-24T08:51:00;5.43;;;1.15;;
15126;SDS011;7664;52.008;4.748;2022-09-24T08:53:32;4.90;;;1.23;;
15126;SDS011;7664;52.008;4.748;2022-09-24T08:56:07;4.65;;;1.65;;
15126;SDS011;7664;52.008;4.748;2022-09-24T08:58:39;4.30;;;1.55;;
15126;SDS011;7664;52.008;4.748;2022-09-24T09:01:14;8.85;;;1.63;;
15126;SDS011;7664;52.008;4.748;2022-09-24T09:03:51;9.13;;;1.45;;
15126;SDS011;7664;52.008;4.748;2022-09-24T09:06:28;4.10;;;0.82;;
15126;SDS011;7664;52.008;4.748;2022-09-24T09:09:16;6.28;;;1.25;;
15126;SDS011;7664;52.008;4.748;2022-09-24T09:11:48;5.45;;;1.30;;
15126;SDS011;7664;52.008;4.748;2022-09-24T09:14:20;4.70;;;1.38;;
15126;SDS011;7664;52.008;4.748;2022-09-24T09:16:57;7.32;;;0.95;;
15126;SDS011;7664;52.008;4.748;2022-09-24T09:19:31;3.58;;;0.85;;
15126;SDS011;7664;52.008;4.748;2022-09-24T09:22:02;6.72;;;1.42;;
15126;SDS011;7664;52.008;4.748;2022-09-24T09:24:35;2.75;;;1.10;;
15126;SDS011;7664;52.008;4.748;2022-09-24T09:27:10;3.22;;;1.02;;
15126;SDS011;7664;52.008;4.748;2022-09-24T09:29:41;2.80;;;1.48;;
15126;SDS011;7664;52.008;4.748;2022-09-24T09:32:15;3.95;;;1.55;;
15126;SDS011;7664;52.008;4.748;2022-09-24T09:34:57;8.88;;;1.27;;
15126;SDS011;7664;52.008;4.748;2022-09-24T09:37:33;5.95;;;1.30;;
15126;SDS011;7664;52.008;4.748;2022-09-24T09:40:15;6.30;;;1.15;;
15126;SDS011;7664;52.008;4.748;2022-09-24T09:42:58;9.00;;;1.33;;
15126;SDS011;7664;52.008;4.748;2022-09-24T09:45:31;5.88;;;1.25;;
15126;SDS011;7664;52.008;4.748;2022-09-24T09:48:04;7.43;;;1.23;;
15126;SDS011;7664;52.008;4.748;2022-09-24T09:50:38;5.05;;;1.27;;
15126;SDS011;7664;52.008;4.748;2022-09-24T09:53:17;6.57;;;0.80;;
15126;SDS011;7664;52.008;4.748;2022-09-24T09:55:51;4.78;;;1.13;;
15126;SDS011;7664;52.008;4.748;2022-09-24T09:58:21;6.50;;;1.10;;
15126;SDS011;7664;52.008;4.748;2022-09-24T10:00:51;4.97;;;1.17;;
15126;SDS011;7664;52.008;4.748;2022-09-24T10:03:29;3.97;;;1.05;;
15126;SDS011;7664;52.008;4.748;2022-09-24T10:05:59;7.63;;;1.10;;
15126;SDS011;7664;52.008;4.748;2022-09-24T10:08:29;5.82;;;1.42;;
15126;SDS011;7664;52.008;4.748;2022-09-24T10:10:58;6.25;;;1.58;;
15126;SDS011;7664;52.008;4.748;2022-09-24T10:13:27;7.88;;;1.63;;
15126;SDS011;7664;52.008;4.748;2022-09-24T10:15:59;8.02;;;1.48;;
15126;SDS011;7664;52.008;4.748;2022-09-24T10:18:30;5.10;;;1.20;;
15126;SDS011;7664;52.008;4.748;2022-09-24T10:21:01;5.88;;;1.30;;
15126;SDS011;7664;52.008;4.748;2022-09-24T10:23:35;6.85;;;2.08;;
15126;SDS011;7664;52.008;4.748;2022-09-24T10:26:05;9.10;;;1.88;;
15126;SDS011;7664;52.008;4.748;2022-09-24T10:28:36;3.97;;;1.50;;
15126;SDS011;7664;52.008;4.748;2022-09-24T10:31:27;8.90;;;1.83;;
15126;SDS011;7664;52.008;4.748;2022-09-24T10:33:57;5.15;;;1.73;;
15126;SDS011;7664;52.008;4.748;2022-09-24T10:36:28;3.08;;;0.88;;
15126;SDS011;7664;52.008;4.748;2022-09-24T10:39:02;4.05;;;1.15;;
15126;SDS011;7664;52.008;4.748;2022-09-24T10:41:35;8.40;;;1.40;;
15126;SDS011;7664;52.008;4.748;2022-09-24T10:44:03;7.25;;;1.83;;
15126;SDS011;7664;52.008;4.748;2022-09-24T10:46:45;13.93;;;1.60;;
15126;SDS011;7664;52.008;4.748;2022-09-24T10:49:30;3.95;;;1.27;;
15126;SDS011;7664;52.008;4.748;2022-09-24T10:52:07;8.52;;;1.48;;
15126;SDS011;7664;52.008;4.748;2022-09-24T10:54:46;2.47;;;1.00;;
15126;SDS011;7664;52.008;4.748;2022-09-24T10:57:23;7.45;;;2.00;;
15126;SDS011;7664;52.008;4.748;2022-09-24T11:00:00;6.07;;;1.60;;
15126;SDS011;7664;52.008;4.748;2022-09-24T11:02:41;9.70;;;2.55;;
15126;SDS011;7664;52.008;4.748;2022-09-24T11:05:30;5.07;;;1.20;;
15126;SDS011;7664;52.008;4.748;2022-09-24T11:08:07;7.68;;;1.17;;
15126;SDS011;7664;52.008;4.748;2022-09-24T11:10:53;6.50;;;1.42;;
15126;SDS011;7664;52.008;4.748;2022-09-24T11:13:37;4.38;;;1.08;;
15126;SDS011;7664;52.008;4.748;2022-09-24T11:16:20;4.28;;;1.20;;
15126;SDS011;7664;52.008;4.748;2022-09-24T11:19:11;3.45;;;1.27;;
15126;SDS011;7664;52.008;4.748;2022-09-24T11:21:52;4.05;;;1.05;;
15126;SDS011;7664;52.008;4.748;2022-09-24T11:24:33;4.68;;;1.15;;
15126;SDS011;7664;52.008;4.748;2022-09-24T11:27:26;5.47;;;1.40;;
15126;SDS011;7664;52.008;4.748;2022-09-24T11:30:08;5.25;;;1.10;;
15126;SDS011;7664;52.008;4.748;2022-09-24T11:32:43;4.97;;;1.10;;
15126;SDS011;7664;52.008;4.748;2022-09-24T11:35:28;6.32;;;1.05;;
15126;SDS011;7664;52.008;4.748;2022-09-24T11:38:14;7.35;;;1.58;;
15126;SDS011;7664;52.008;4.748;2022-09-24T11:40:53;4.13;;;1.05;;
15126;SDS011;7664;52.008;4.748;2022-09-24T11:43:44;5.15;;;1.25;;
15126;SDS011;7664;52.008;4.748;2022-09-24T11:46:30;4.43;;;1.23;;
15126;SDS011;7664;52.008;4.748;2022-09-24T11:49:18;7.38;;;1.48;;
15126;SDS011;7664;52.008;4.748;2022-09-24T11:51:59;3.83;;;1.58;;
15126;SDS011;7664;52.008;4.748;2022-09-24T11:54:33;6.18;;;1.08;;
15126;SDS011;7664;52.008;4.748;2022-09-24T11:57:07;4.07;;;1.25;;
15126;SDS011;7664;52.008;4.748;2022-09-24T11:59:42;3.25;;;0.98;;
15126;SDS011;7664;52.008;4.748;2022-09-24T12:02:15;5.15;;;1.15;;
15126;SDS011;7664;52.008;4.748;2022-09-24T12:04:52;4.00;;;0.70;;
15126;SDS011;7664;52.008;4.748;2022-09-24T12:07:28;3.67;;;1.20;;
15126;SDS011;7664;52.008;4.748;2022-09-24T12:10:01;3.03;;;0.80;;
15126;SDS011;7664;52.008;4.748;2022-09-24T12:12:50;6.47;;;1.08;;
15126;SDS011;7664;52.008;4.748;2022-09-24T12:15:23;6.32;;;1.15;;
15126;SDS011;7664;52.008;4.748;2022-09-24T12:18:00;4.50;;;1.05;;
15126;SDS011;7664;52.008;4.748;2022-09-24T12:20:43;5.13;;;0.90;;
15126;SDS011;7664;52.008;4.748;2022-09-24T12:23:17;7.40;;;1.20;;
15126;SDS011;7664;52.008;4.748;2022-09-24T12:25:53;2.58;;;1.17;;
15126;SDS011;7664;52.008;4.748;2022-09-24T12:28:25;4.80;;;0.77;;
15126;SDS011;7664;52.008;4.748;2022-09-24T12:31:17;6.75;;;0.85;;
15126;SDS011;7664;52.008;4.748;2022-09-24T12:34:09;8.90;;;1.40;;
15126;SDS011;7664;52.008;4.748;2022-09-24T12:36:46;7.13;;;0.80;;
15126;SDS011;7664;52.008;4.748;2022-09-24T12:39:24;4.53;;;0.80;;
15126;SDS011;7664;52.008;4.748;2022-09-24T12:41:56;3.65;;;0.95;;
15126;SDS011;7664;52.008;4.748;2022-09-24T12:44:30;3.17;;;0.77;;
15126;SDS011;7664;52.008;4.748;2022-09-24T12:47:03;1.83;;;0.90;;
15126;SDS011;7664;52.008;4.748;2022-09-24T12:49:32;5.43;;;0.50;;
15126;SDS011;7664;52.008;4.748;2022-09-24T12:52:03;6.72;;;0.73;;
15126;SDS011;7664;52.008;4.748;2022-09-24T12:54:46;2.75;;;0.88;;
15126;SDS011;7664;52.008;4.748;2022-09-24T12:57:22;2.70;;;0.75;;
15126;SDS011;7664;52.008;4.748;2022-09-24T12:59:52;4.28;;;1.65;;
15126;SDS011;7664;52.008;4.748;2022-09-24T13:02:22;2.92;;;0.43;;
15126;SDS011;7664;52.008;4.748;2022-09-24T13:05:13;4.78;;;1.17;;
15126;SDS011;7664;52.008;4.748;2022-09-24T13:07:54;1.90;;;0.95;;
15126;SDS011;7664;52.008;4.748;2022-09-24T13:10:26;3.25;;;0.60;;
15126;SDS011;7664;52.008;4.748;2022-09-24T13:12:56;8.95;;;1.27;;
15126;SDS011;7664;52.008;4.748;2022-09-24T13:15:29;4.38;;;0.88;;
15126;SDS011;7664;52.008;4.748;2022-09-24T13:18:00;3.38;;;0.57;;
15126;SDS011;7664;52.008;4.748;2022-09-24T13:20:54;6.13;;;1.20;;
15126;SDS011;7664;52.008;4.748;2022-09-24T13:23:30;6.00;;;1.08;;
15126;SDS011;7664;52.008;4.748;2022-09-24T13:26:25;2.92;;;0.70;;
15126;SDS011;7664;52.008;4.748;2022-09-24T13:28:59;4.45;;;1.13;;
15126;SDS011;7664;52.008;4.748;2022-09-24T13:31:37;4.75;;;1.05;;
15126;SDS011;7664;52.008;4.748;2022-09-24T13:34:11;10.05;;;0.82;;
15126;SDS011;7664;52.008;4.748;2022-09-24T13:36:46;2.47;;;0.93;;
15126;SDS011;7664;52.008;4.748;2022-09-24T13:39:19;4.57;;;0.95;;
15126;SDS011;7664;52.008;4.748;2022-09-24T13:41:55;3.10;;;0.68;;
15126;SDS011;7664;52.008;4.748;2022-09-24T13:44:29;1.70;;;0.70;;
15126;SDS011;7664;52.008;4.748;2022-09-24T13:47:03;3.90;;;1.02;;
15126;SDS011;7664;52.008;4.748;2022-09-24T13:49:37;3.40;;;0.70;;
15126;SDS011;7664;52.008;4.748;2022-09-24T13:52:12;3.60;;;1.50;;
15126;SDS011;7664;52.008;4.748;2022-09-24T13:54:46;5.85;;;1.00;;
15126;SDS011;7664;52.008;4.748;2022-09-24T13:57:23;4.55;;;1.30;;
15126;SDS011;7664;52.008;4.748;2022-09-24T14:00:03;1.65;;;1.15;;
15126;SDS011;7664;52.008;4.748;2022-09-24T14:02:41;2.80;;;0.77;;
15126;SDS011;7664;52.008;4.748;2022-09-24T14:05:18;5.72;;;1.55;;
15126;SDS011;7664;52.008;4.748;2022-09-24T14:07:56;4.13;;;1.15;;
15126;SDS011;7664;52.008;4.748;2022-09-24T14:10:30;6.15;;;1.00;;
15126;SDS011;7664;52.008;4.748;2022-09-24T14:13:01;4.78;;;0.90;;
15126;SDS011;7664;52.008;4.748;2022-09-24T14:15:36;3.03;;;0.85;;
15126;SDS011;7664;52.008;4.748;2022-09-24T14:18:05;3.20;;;0.70;;
15126;SDS011;7664;52.008;4.748;2022-09-24T14:20:40;1.95;;;0.60;;
15126;SDS011;7664;52.008;4.748;2022-09-24T14:23:09;1.58;;;0.50;;
15126;SDS011;7664;52.008;4.748;2022-09-24T14:25:45;4.40;;;0.45;;
15126;SDS011;7664;52.008;4.748;2022-09-24T14:28:16;2.20;;;0.68;;
15126;SDS011;7664;52.008;4.748;2022-09-24T14:30:47;7.00;;;1.13;;
15126;SDS011;7664;52.008;4.748;2022-09-24T14:33:18;4.50;;;1.13;;
15126;SDS011;7664;52.008;4.748;2022-09-24T14:35:51;3.85;;;0.60;;
15126;SDS011;7664;52.008;4.748;2022-09-24T14:38:21;4.28;;;0.88;;
15126;SDS011;7664;52.008;4.748;2022-09-24T14:40:52;2.67;;;0.60;;
15126;SDS011;7664;52.008;4.748;2022-09-24T14:43:25;8.20;;;1.48;;
15126;SDS011;7664;52.008;4.748;2022-09-24T14:46:00;5.65;;;0.82;;
15126;SDS011;7664;52.008;4.748;2022-09-24T14:48:32;0.85;;;0.30;;
15126;SDS011;7664;52.008;4.748;2022-09-24T14:51:00;1.67;;;0.80;;
15126;SDS011;7664;52.008;4.748;2022-09-24T14:53:29;1.45;;;0.60;;
15126;SDS011;7664;52.008;4.748;2022-09-24T14:56:00;3.45;;;0.82;;
15126;SDS011;7664;52.008;4.748;2022-09-24T14:58:35;4.78;;;1.17;;
15126;SDS011;7664;52.008;4.748;2022-09-24T15:01:04;4.35;;;0.98;;
15126;SDS011;7664;52.008;4.748;2022-09-24T15:03:40;5.88;;;1.33;;
15126;SDS011;7664;52.008;4.748;2022-09-24T15:06:15;3.08;;;0.50;;
15126;SDS011;7664;52.008;4.748;2022-09-24T15:08:51;5.75;;;1.90;;
15126;SDS011;7664;52.008;4.748;2022-09-24T15:11:26;3.05;;;0.77;;
15126;SDS011;7664;52.008;4.748;2022-09-24T15:13:58;7.05;;;0.60;;
15126;SDS011;7664;52.008;4.748;2022-09-24T15:16:29;2.30;;;0.50;;
15126;SDS011;7664;52.008;4.748;2022-09-24T15:19:17;2.20;;;0.82;;
15126;SDS011;7664;52.008;4.748;2022-09-24T15:21:47;3.08;;;0.68;;
15126;SDS011;7664;52.008;4.748;2022-09-24T15:24:17;2.00;;;0.63;;
15126;SDS011;7664;52.008;4.748;2022-09-24T15:26:47;3.95;;;1.10;;
15126;SDS011;7664;52.008;4.748;2022-09-24T15:29:30;3.80;;;0.80;;
15126;SDS011;7664;52.008;4.748;2022-09-24T15:31:59;3.10;;;1.00;;